Time;durP1;ratioP1;P1;durP2;ratioP2;P2;SDS_P1;SDS_P2;PMS_P1;PMS_P2;Temp;Humidity;BMP_temperature;BMP_pressure;BME280_temperature;BME280_humidity;BME280_pressure;Samples;Min_cycle;Max_cycle;Signal;HPM_P1;HPM_P2
2021/12/03 00:01:12;;;;;;;;;;;;;;;9.23;52.94;101096.59;5078173;28;19923;-84
2021/12/03 00:03:37;;;;;;;;;;;;;;;8.87;53.99;101092.50;5062750;28;19917;-86
2021/12/03 00:06:03;;;;;;;;;;;;;;;8.83;54.40;101093.56;5078751;28;19924;-85
2021/12/03 00:08:28;;;;;;;;;;;;;;;8.74;54.54;101099.31;5077425;28;19928;-84
2021/12/03 00:10:59;;;;;;;;;;;;;;;8.87;54.31;101108.69;5062882;28;19920;-85
2021/12/03 00:13:25;;;;;;;;;;;;;;;8.80;54.51;101112.56;5063238;28;20389;-85
2021/12/03 00:15:52;;;;;;;;;;;;;;;8.97;54.67;101109.25;5080632;28;19943;-84
2021/12/03 00:18:18;;;;;;;;;;;;;;;9.16;53.92;101104.06;5068928;28;20401;-83
2021/12/03 00:20:44;;;;;;;;;;;;;;;9.07;54.44;101112.47;5081421;28;19917;-84
2021/12/03 00:23:09;;;;;;;;;;;;;;;9.28;53.40;101118.00;5069875;28;19916;-86
2021/12/03 00:25:35;;;;;;;;;;;;;;;9.03;54.17;101117.13;5077696;28;19913;-85
2021/12/03 00:28:01;;;;;;;;;;;;;;;9.19;53.73;101114.75;5078360;28;19917;-88
2021/12/03 00:30:26;;;;;;;;;;;;;;;8.89;54.46;101115.84;5078863;28;19948;-86
2021/12/03 00:32:52;;;;;;;;;;;;;;;9.04;53.77;101120.69;5061422;28;19921;-86
2021/12/03 00:35:17;;;;;;;;;;;;;;;8.66;54.83;101114.84;5076904;28;19928;-86
2021/12/03 00:37:46;;;;;;;;;;;;;;;8.81;54.60;101116.13;5060995;28;19932;-87
2021/12/03 00:40:12;;;;;;;;;;;;;;;8.85;54.29;101121.38;5063201;28;19936;-87
2021/12/03 00:42:38;;;;;;;;;;;;;;;9.11;53.43;101114.13;5061241;28;20015;-87
2021/12/03 00:45:04;;;;;;;;;;;;;;;8.83;54.26;101109.75;5079125;28;19970;-85
2021/12/03 00:47:30;;;;;;;;;;;;;;;9.30;53.04;101121.53;5063245;28;19920;-88
2021/12/03 00:49:55;;;;;;;;;;;;;;;9.18;53.16;101118.38;5063247;28;19928;-85
2021/12/03 00:52:20;;;;;;;;;;;;;;;9.13;53.20;101114.94;5066829;28;19920;-84
2021/12/03 00:54:45;;;;;;;;;;;;;;;8.81;54.63;101114.31;5080681;28;19957;-84
2021/12/03 00:57:11;;;;;;;;;;;;;;;9.39;53.36;101118.47;5065888;28;19935;-86
2021/12/03 00:59:36;;;;;;;;;;;;;;;8.89;54.19;101107.75;5084288;28;20012;-83
2021/12/03 01:02:02;;;;;;;;;;;;;;;8.82;54.27;101102.59;5084640;28;19916;-86
2021/12/03 01:04:27;;;;;;;;;;;;;;;8.81;54.60;101102.66;5078185;28;20003;-86
2021/12/03 01:06:52;;;;;;;;;;;;;;;8.96;54.24;101098.50;5077118;28;19916;-83
2021/12/03 01:09:18;;;;;;;;;;;;;;;8.60;54.98;101104.28;5060717;28;20329;-83
2021/12/03 01:11:43;;;;;;;;;;;;;;;8.93;54.35;101098.63;5059826;28;20340;-83
2021/12/03 01:14:09;;;;;;;;;;;;;;;8.84;54.81;101103.41;5060519;28;20019;-83
2021/12/03 01:16:34;;;;;;;;;;;;;;;9.03;54.40;101094.66;5074652;28;20011;-83
2021/12/03 01:19:00;;;;;;;;;;;;;;;9.12;54.15;101097.00;5062522;28;19962;-88
2021/12/03 01:21:25;;;;;;;;;;;;;;;9.01;53.80;101096.50;5079048;28;19917;-85
2021/12/03 01:23:52;;;;;;;;;;;;;;;8.97;54.13;101094.88;5076446;28;19925;-84
2021/12/03 01:26:19;;;;;;;;;;;;;;;9.61;52.93;101093.34;5060675;28;19917;-85
2021/12/03 01:28:45;;;;;;;;;;;;;;;9.66;52.23;101097.63;5059755;28;19917;-85
2021/12/03 01:31:10;;;;;;;;;;;;;;;9.64;51.92;101095.94;5076077;28;19967;-85
2021/12/03 01:33:35;;;;;;;;;;;;;;;9.16;53.94;101100.47;5076158;28;19917;-85
2021/12/03 01:36:01;;;;;;;;;;;;;;;9.99;52.08;101097.19;5076203;28;19929;-85
2021/12/03 01:38:26;;;;;;;;;;;;;;;9.87;52.30;101105.81;5074713;28;19917;-86
2021/12/03 01:40:51;;;;;;;;;;;;;;;9.63;52.11;101110.38;5074648;28;19925;-86
2021/12/03 01:43:24;;;;;;;;;;;;;;;9.18;53.98;101118.38;5059626;28;19927;-85
2021/12/03 01:45:55;;;;;;;;;;;;;;;9.63;53.83;101107.66;5075394;28;19967;-85
2021/12/03 01:48:20;;;;;;;;;;;;;;;9.74;53.47;101097.31;5058742;28;19949;-85
2021/12/03 01:50:46;;;;;;;;;;;;;;;9.76;53.60;101095.44;5074814;28;19917;-83
2021/12/03 01:53:13;;;;;;;;;;;;;;;9.68;53.18;101090.34;5074701;28;19943;-84
2021/12/03 01:55:39;;;;;;;;;;;;;;;9.67;53.67;101087.69;5059788;28;19947;-85
2021/12/03 01:58:05;;;;;;;;;;;;;;;9.71;53.21;101089.34;5060509;28;19955;-86
2021/12/03 02:00:32;;;;;;;;;;;;;;;9.53;53.80;101081.03;5076651;28;19917;-87
2021/12/03 02:02:58;;;;;;;;;;;;;;;9.73;53.05;101082.03;5075110;28;19952;-85
2021/12/03 02:05:24;;;;;;;;;;;;;;;9.42;53.47;101091.38;5059718;28;19988;-86
2021/12/03 02:07:49;;;;;;;;;;;;;;;10.16;51.95;101079.38;5075435;28;19963;-85
2021/12/03 02:10:16;;;;;;;;;;;;;;;10.19;51.18;101073.84;5059718;28;19970;-86
2021/12/03 02:12:42;;;;;;;;;;;;;;;10.20;51.83;101068.38;5075066;28;19946;-84
2021/12/03 02:15:07;;;;;;;;;;;;;;;9.81;52.18;101068.22;5078147;28;19917;-85
2021/12/03 02:17:33;;;;;;;;;;;;;;;9.94;52.36;101059.53;5065211;28;19917;-86
2021/12/03 02:19:58;;;;;;;;;;;;;;;9.94;52.33;101058.66;5085010;28;19923;-86
2021/12/03 02:22:23;;;;;;;;;;;;;;;9.57;53.80;101061.06;5061377;28;19966;-85
2021/12/03 02:24:49;;;;;;;;;;;;;;;9.80;53.20;101070.06;5059920;28;19917;-86
2021/12/03 02:27:14;;;;;;;;;;;;;;;9.74;53.05;101073.00;5059358;28;19920;-85
2021/12/03 02:29:39;;;;;;;;;;;;;;;9.99;52.40;101082.81;5075174;28;19923;-85
2021/12/03 02:32:05;;;;;;;;;;;;;;;10.22;52.26;101077.31;5075091;28;19993;-86
2021/12/03 02:34:30;;;;;;;;;;;;;;;9.94;52.41;101078.47;5058276;28;20359;-86
2021/12/03 02:36:57;;;;;;;;;;;;;;;10.07;52.16;101068.03;5074773;28;19932;-85
2021/12/03 02:39:22;;;;;;;;;;;;;;;9.65;53.98;101067.97;5057113;28;19934;-85
2021/12/03 02:41:48;;;;;;;;;;;;;;;9.82;52.99;101064.59;5073240;28;19924;-85
2021/12/03 02:44:13;;;;;;;;;;;;;;;9.60;53.44;101069.97;5074896;28;20011;-85
2021/12/03 02:46:38;;;;;;;;;;;;;;;9.42;54.87;101072.47;5075265;28;19927;-86
2021/12/03 02:49:05;;;;;;;;;;;;;;;9.60;54.80;101069.97;5074259;28;20687;-85
2021/12/03 02:51:30;;;;;;;;;;;;;;;9.72;54.22;101067.66;5075562;28;19917;-86
2021/12/03 02:53:56;;;;;;;;;;;;;;;9.64;54.33;101071.63;5075801;28;19975;-85
2021/12/03 02:56:21;;;;;;;;;;;;;;;9.67;53.76;101072.38;5075355;28;19920;-86
2021/12/03 02:58:46;;;;;;;;;;;;;;;10.18;53.06;101067.56;5075486;28;19917;-85
2021/12/03 03:01:13;;;;;;;;;;;;;;;9.94;53.31;101070.34;5075886;28;19983;-85
2021/12/03 03:03:38;;;;;;;;;;;;;;;10.36;52.66;101062.38;5075972;28;19917;-85
2021/12/03 03:06:04;;;;;;;;;;;;;;;9.88;52.62;101056.22;5075664;28;20031;-85
2021/12/03 03:08:30;;;;;;;;;;;;;;;9.73;54.80;101055.03;5060934;28;19900;-85
2021/12/03 03:10:56;;;;;;;;;;;;;;;10.59;51.92;101054.09;5075549;28;19925;-86
2021/12/03 03:13:22;;;;;;;;;;;;;;;9.92;52.76;101060.56;5075286;28;20027;-85
2021/12/03 03:15:48;;;;;;;;;;;;;;;9.72;53.75;101053.25;5059813;28;20389;-86
2021/12/03 03:18:15;;;;;;;;;;;;;;;10.25;52.85;101058.25;5075310;28;19971;-86
2021/12/03 03:20:41;;;;;;;;;;;;;;;10.81;51.12;101050.47;5075810;28;20377;-85
2021/12/03 03:23:06;;;;;;;;;;;;;;;10.40;51.76;101039.63;5057746;28;19924;-85
2021/12/03 03:25:32;;;;;;;;;;;;;;;10.18;52.68;101029.72;5058474;28;19905;-85
2021/12/03 03:27:57;;;;;;;;;;;;;;;9.93;53.24;101029.88;5059357;28;20472;-86
2021/12/03 03:30:22;;;;;;;;;;;;;;;9.98;52.69;101032.38;5075171;28;19916;-85
2021/12/03 03:32:49;;;;;;;;;;;;;;;9.65;53.06;101024.75;5076070;28;19917;-84
2021/12/03 03:35:14;;;;;;;;;;;;;;;10.53;52.17;101013.81;5075653;28;19927;-86
2021/12/03 03:37:40;;;;;;;;;;;;;;;10.29;52.21;101015.72;5079038;28;19956;-86
2021/12/03 03:40:06;;;;;;;;;;;;;;;10.28;52.96;101008.56;5080150;28;19948;-86
2021/12/03 03:42:33;;;;;;;;;;;;;;;10.21;53.13;101010.66;5081179;28;19927;-86
2021/12/03 03:44:58;;;;;;;;;;;;;;;10.11;53.68;101014.72;5062734;28;19917;-85
2021/12/03 03:47:23;;;;;;;;;;;;;;;10.22;52.95;101003.41;5079702;28;20303;-86
2021/12/03 03:49:49;;;;;;;;;;;;;;;9.81;54.20;101008.78;5078536;28;19913;-85
2021/12/03 03:52:14;;;;;;;;;;;;;;;10.40;52.78;100996.34;5079262;28;19917;-85
2021/12/03 03:54:39;;;;;;;;;;;;;;;10.19;52.92;100999.06;5079556;28;20124;-85
2021/12/03 03:57:05;;;;;;;;;;;;;;;10.02;53.70;101004.28;5080702;28;20310;-86
2021/12/03 03:59:30;;;;;;;;;;;;;;;10.16;53.09;100999.19;5066129;28;19962;-85
2021/12/03 04:01:55;;;;;;;;;;;;;;;9.90;54.51;101011.09;5084778;28;19992;-85
2021/12/03 04:04:21;;;;;;;;;;;;;;;9.93;54.01;101009.16;5069081;28;19919;-85
2021/12/03 04:06:47;;;;;;;;;;;;;;;10.40;53.54;100994.56;5082849;28;19939;-86
2021/12/03 04:09:12;;;;;;;;;;;;;;;9.66;54.99;101002.19;5083990;28;19917;-86
2021/12/03 04:11:38;;;;;;;;;;;;;;;9.43;57.20;100997.75;5083420;28;19916;-85
2021/12/03 04:14:03;;;;;;;;;;;;;;;9.83;55.62;100996.06;5069266;28;20306;-85
2021/12/03 04:16:29;;;;;;;;;;;;;;;10.51;53.42;100999.47;5080526;28;19917;-85
2021/12/03 04:18:54;;;;;;;;;;;;;;;10.53;53.03;101008.38;5062063;28;20023;-86
2021/12/03 04:21:20;;;;;;;;;;;;;;;10.68;52.36;101005.97;5078661;28;19923;-85
2021/12/03 04:23:45;;;;;;;;;;;;;;;10.76;52.21;100999.22;5077770;28;19960;-86
2021/12/03 04:26:11;;;;;;;;;;;;;;;10.49;53.61;101005.91;5078377;28;20007;-85
2021/12/03 04:28:36;;;;;;;;;;;;;;;10.51;53.15;101002.19;5078392;28;19916;-85
2021/12/03 04:31:01;;;;;;;;;;;;;;;11.13;51.78;101005.63;5063398;28;19923;-86
2021/12/03 04:33:27;;;;;;;;;;;;;;;10.54;53.16;101001.19;5063728;28;20027;-85
2021/12/03 04:35:52;;;;;;;;;;;;;;;9.96;54.64;100994.63;5078563;28;19924;-85
2021/12/03 04:38:17;;;;;;;;;;;;;;;10.70;53.15;100988.69;5077349;28;19956;-85
2021/12/03 04:40:43;;;;;;;;;;;;;;;9.99;55.10;100996.31;5076997;28;19999;-85
2021/12/03 04:43:08;;;;;;;;;;;;;;;9.88;55.03;100976.03;5078001;28;20386;-85
2021/12/03 04:45:34;;;;;;;;;;;;;;;10.10;55.20;100973.28;5078222;28;19962;-85
2021/12/03 04:48:00;;;;;;;;;;;;;;;10.37;54.66;100972.16;5060659;28;19917;-85
2021/12/03 04:50:28;;;;;;;;;;;;;;;10.05;54.97;100969.03;5076712;28;19924;-85
2021/12/03 04:52:54;;;;;;;;;;;;;;;10.71;53.83;100974.22;5061575;28;19948;-85
2021/12/03 04:55:21;;;;;;;;;;;;;;;10.77;53.01;100970.34;5075659;28;19962;-85
2021/12/03 04:57:49;;;;;;;;;;;;;;;10.62;53.07;100972.81;5075823;28;19923;-85
2021/12/03 05:00:17;;;;;;;;;;;;;;;10.64;53.05;100973.63;5076563;28;19923;-85
2021/12/03 05:02:43;;;;;;;;;;;;;;;10.24;55.25;100972.69;5076366;28;19939;-85
2021/12/03 05:05:08;;;;;;;;;;;;;;;10.34;55.08;100972.28;5077076;28;19913;-85
2021/12/03 05:10:06;;;;;;;;;;;;;;;10.44;54.40;100970.94;5061588;28;19956;-85
2021/12/03 05:12:33;;;;;;;;;;;;;;;10.09;54.80;100965.25;5077647;28;19927;-84
2021/12/03 05:14:58;;;;;;;;;;;;;;;10.95;53.92;100955.94;5078269;28;20382;-85
2021/12/03 05:17:23;;;;;;;;;;;;;;;10.78;54.30;100953.19;5061086;28;20011;-84
2021/12/03 05:19:49;;;;;;;;;;;;;;;10.95;52.97;100949.66;5076129;28;20484;-84
2021/12/03 05:22:14;;;;;;;;;;;;;;;10.84;53.92;100954.69;5075801;28;19921;-85
2021/12/03 05:24:40;;;;;;;;;;;;;;;10.67;53.56;100950.06;5075715;28;20010;-85
2021/12/03 05:27:06;;;;;;;;;;;;;;;11.20;53.24;100954.75;5059761;28;19908;-84
2021/12/03 05:29:31;;;;;;;;;;;;;;;11.24;52.63;100953.66;5076572;28;19964;-85
2021/12/03 05:31:56;;;;;;;;;;;;;;;10.50;54.82;100964.38;5075766;28;20359;-85
2021/12/03 05:34:22;;;;;;;;;;;;;;;11.05;53.19;100953.69;5074806;28;19917;-84
2021/12/03 05:36:49;;;;;;;;;;;;;;;10.98;52.69;100953.09;5075151;28;19924;-84
2021/12/03 05:39:14;;;;;;;;;;;;;;;10.96;53.11;100949.59;5076235;28;19940;-84
2021/12/03 05:41:40;;;;;;;;;;;;;;;10.69;53.87;100948.16;5075638;28;19921;-84
2021/12/03 05:44:05;;;;;;;;;;;;;;;11.16;52.75;100948.63;5075478;28;19901;-84
2021/12/03 05:46:30;;;;;;;;;;;;;;;10.60;54.19;100944.94;5076256;28;19924;-85
2021/12/03 05:48:56;;;;;;;;;;;;;;;10.66;53.79;100935.69;5077878;28;19939;-84
2021/12/03 05:51:21;;;;;;;;;;;;;;;10.19;55.02;100936.88;5063609;28;19921;-84
2021/12/03 05:53:46;;;;;;;;;;;;;;;10.28;54.94;100931.03;5079326;28;19917;-84
2021/12/03 05:56:12;;;;;;;;;;;;;;;10.07;55.68;100935.59;5077299;28;19962;-84
2021/12/03 05:58:37;;;;;;;;;;;;;;;10.37;54.76;100932.50;5078428;28;19984;-84
2021/12/03 06:01:03;;;;;;;;;;;;;;;9.69;56.50;100935.44;5081110;28;19916;-85
2021/12/03 06:03:28;;;;;;;;;;;;;;;10.57;54.54;100931.56;5079572;28;19923;-84
2021/12/03 06:05:53;;;;;;;;;;;;;;;10.56;54.47;100954.16;5086462;28;20390;-85
2021/12/03 06:08:18;;;;;;;;;;;;;;;10.06;55.71;100951.88;5062447;28;19938;-85
2021/12/03 06:10:44;;;;;;;;;;;;;;;11.02;53.14;100951.13;5076288;28;20275;-86
2021/12/03 06:13:10;;;;;;;;;;;;;;;10.63;53.44;100942.09;5076525;28;19916;-86
2021/12/03 06:15:35;;;;;;;;;;;;;;;10.24;53.63;100937.53;5061329;28;19917;-86
2021/12/03 06:18:00;;;;;;;;;;;;;;;10.54;52.79;100938.97;5059353;28;20278;-85
2021/12/03 06:20:26;;;;;;;;;;;;;;;10.43;54.02;100934.00;5076200;28;19970;-85
2021/12/03 06:22:51;;;;;;;;;;;;;;;10.41;53.61;100938.63;5060770;28;19928;-85
2021/12/03 06:25:17;;;;;;;;;;;;;;;10.78;52.76;100945.06;5078515;28;19967;-83
2021/12/03 06:27:42;;;;;;;;;;;;;;;10.80;52.10;100951.25;5079012;28;19916;-83
2021/12/03 06:30:09;;;;;;;;;;;;;;;10.40;53.25;100953.09;5062737;28;19967;-84
2021/12/03 06:32:35;;;;;;;;;;;;;;;9.88;54.27;100949.00;5078063;28;19959;-87
2021/12/03 06:35:00;;;;;;;;;;;;;;;10.74;52.62;100941.59;5076664;28;19921;-85
2021/12/03 06:37:25;;;;;;;;;;;;;;;10.49;52.03;100941.84;5077994;28;19924;-85
2021/12/03 06:39:51;;;;;;;;;;;;;;;10.80;51.53;100940.44;5078067;28;19950;-87
2021/12/03 06:42:16;;;;;;;;;;;;;;;10.37;52.28;100942.41;5062370;28;19916;-85
2021/12/03 06:44:42;;;;;;;;;;;;;;;10.17;52.93;100932.47;5057576;28;19927;-85
2021/12/03 06:47:08;;;;;;;;;;;;;;;9.78;54.25;100934.13;5057872;28;20460;-85
2021/12/03 06:49:34;;;;;;;;;;;;;;;9.69;54.28;100923.72;5073397;28;19917;-86
2021/12/03 06:52:04;;;;;;;;;;;;;;;9.96;53.17;100929.75;5075404;28;20349;-87
2021/12/03 06:54:31;;;;;;;;;;;;;;;9.96;53.43;100920.78;5073598;28;19924;-88
2021/12/03 06:56:57;;;;;;;;;;;;;;;9.83;54.30;100917.72;5070495;28;19925;-85
2021/12/03 06:59:32;;;;;;;;;;;;;;;10.58;51.83;100917.09;5072396;28;19984;-85
2021/12/03 07:01:57;;;;;;;;;;;;;;;10.23;52.33;100922.25;5078302;28;19948;-87
2021/12/03 07:04:23;;;;;;;;;;;;;;;10.66;51.25;100916.75;5076810;28;19917;-87
2021/12/03 07:06:48;;;;;;;;;;;;;;;10.84;49.95;100919.50;5074077;28;20015;-89
2021/12/03 07:09:14;;;;;;;;;;;;;;;10.24;51.54;100929.41;5072543;28;19917;-89
2021/12/03 07:11:40;;;;;;;;;;;;;;;9.87;52.70;100924.75;5092933;28;20271;-89
2021/12/03 07:14:08;;;;;;;;;;;;;;;9.54;53.02;100934.25;5060613;28;19968;-85
2021/12/03 07:16:33;;;;;;;;;;;;;;;9.73;51.71;100945.13;5061747;28;19924;-89
2021/12/03 07:18:58;;;;;;;;;;;;;;;10.35;50.75;100928.97;5077808;28;19917;-87
2021/12/03 07:21:24;;;;;;;;;;;;;;;10.43;50.79;100920.50;5062087;28;19925;-88
2021/12/03 07:23:53;;;;;;;;;;;;;;;10.19;50.81;100938.66;5061380;28;19917;-85
2021/12/03 07:26:19;;;;;;;;;;;;;;;9.67;51.89;100925.63;5059977;28;19917;-86
2021/12/03 07:28:44;;;;;;;;;;;;;;;9.85;51.37;100922.13;5061072;28;19916;-86
2021/12/03 07:31:11;;;;;;;;;;;;;;;10.45;49.99;100913.22;5061949;28;19917;-85
2021/12/03 07:33:36;;;;;;;;;;;;;;;9.82;50.93;100919.56;5057537;28;19963;-86
2021/12/03 07:36:01;;;;;;;;;;;;;;;9.85;51.31;100915.84;5059498;28;19929;-86
2021/12/03 07:38:27;;;;;;;;;;;;;;;9.88;50.83;100913.88;5061310;28;19916;-86
2021/12/03 07:40:52;;;;;;;;;;;;;;;10.03;50.24;100919.56;5059398;28;19924;-84
2021/12/03 07:43:17;;;;;;;;;;;;;;;10.32;50.66;100917.38;5058320;28;19921;-86
2021/12/03 07:45:43;;;;;;;;;;;;;;;9.87;51.54;100909.44;5078523;28;19964;-86
2021/12/03 07:48:08;;;;;;;;;;;;;;;9.82;51.24;100906.03;5078544;28;19940;-85
2021/12/03 07:50:36;;;;;;;;;;;;;;;9.21;53.21;100904.13;5076524;28;19933;-88
2021/12/03 07:53:02;;;;;;;;;;;;;;;9.83;51.20;100898.81;5078683;28;19917;-87
2021/12/03 07:55:27;;;;;;;;;;;;;;;9.05;52.39;100888.53;5064299;28;19917;-87
2021/12/03 07:57:53;;;;;;;;;;;;;;;9.47;51.39;100894.94;5087468;28;19978;-85
2021/12/03 08:00:18;;;;;;;;;;;;;;;9.07;52.22;100901.97;5067370;28;19916;-85
2021/12/03 08:02:43;;;;;;;;;;;;;;;9.87;51.13;100900.44;5063841;28;19936;-86
2021/12/03 08:05:09;;;;;;;;;;;;;;;9.89;50.86;100899.44;5062319;28;19917;-85
2021/12/03 08:07:34;;;;;;;;;;;;;;;9.65;52.02;100901.38;5059163;28;19923;-88
2021/12/03 08:10:00;;;;;;;;;;;;;;;8.67;53.01;100898.19;5076395;28;20436;-87
2021/12/03 08:12:25;;;;;;;;;;;;;;;9.00;52.36;100892.38;5075408;28;19928;-88
2021/12/03 08:14:50;;;;;;;;;;;;;;;9.06;52.69;100881.34;5058838;28;19920;-88
2021/12/03 08:17:15;;;;;;;;;;;;;;;9.75;51.09;100888.34;5075511;28;19913;-89
2021/12/03 08:19:40;;;;;;;;;;;;;;;9.13;52.71;100874.72;5074868;28;19921;-87
2021/12/03 08:22:06;;;;;;;;;;;;;;;9.72;51.75;100869.56;5058271;28;19925;-85
2021/12/03 08:24:31;;;;;;;;;;;;;;;9.48;51.91;100872.41;5065524;28;19925;-88
2021/12/03 08:26:56;;;;;;;;;;;;;;;9.78;50.68;100873.81;5057900;28;19921;-88
2021/12/03 08:29:22;;;;;;;;;;;;;;;9.31;52.44;100875.78;5077206;28;19932;-87
2021/12/03 08:31:47;;;;;;;;;;;;;;;9.07;53.06;100872.28;5075641;28;19967;-88
2021/12/03 08:34:12;;;;;;;;;;;;;;;9.39;52.60;100870.06;5061393;28;19904;-85
2021/12/03 08:36:38;;;;;;;;;;;;;;;10.00;51.47;100857.53;5076220;28;19920;-86
2021/12/03 08:39:04;;;;;;;;;;;;;;;8.85;53.13;100848.88;5059318;28;19916;-87
2021/12/03 08:41:30;;;;;;;;;;;;;;;9.29;52.32;100849.81;5059711;28;19924;-87
2021/12/03 08:43:55;;;;;;;;;;;;;;;9.09;52.75;100854.22;5075778;28;19924;-89
2021/12/03 08:46:28;;;;;;;;;;;;;;;10.39;49.89;100854.00;5075954;28;19927;-88
2021/12/03 08:48:53;;;;;;;;;;;;;;;10.14;50.45;100855.06;5075512;28;20362;-88
2021/12/03 08:51:31;;;;;;;;;;;;;;;10.40;49.96;100867.44;5075053;28;19980;-85
2021/12/03 08:57:00;;;;;;;;;;;;;;;9.63;51.11;100854.66;4999689;28;19929;-88
2021/12/03 08:59:26;;;;;;;;;;;;;;;9.57;51.05;100845.00;5001275;28;19922;-88
2021/12/03 09:01:51;;;;;;;;;;;;;;;8.84;52.65;100843.56;5021124;28;19984;-87
2021/12/03 09:04:17;;;;;;;;;;;;;;;9.52;51.33;100838.03;5009368;28;19918;-86
2021/12/03 09:06:42;;;;;;;;;;;;;;;9.15;52.12;100821.59;4999503;28;20015;-86
2021/12/03 09:09:08;;;;;;;;;;;;;;;9.49;52.27;100819.25;5056360;28;19936;-85
2021/12/03 09:11:38;;;;;;;;;;;;;;;9.51;51.25;100823.66;5073291;28;19923;-88
2021/12/03 09:14:12;;;;;;;;;;;;;;;8.87;52.73;100825.41;5074178;28;19916;-86
2021/12/03 09:16:37;;;;;;;;;;;;;;;8.93;52.90;100820.72;5075544;28;19928;-86
2021/12/03 09:19:05;;;;;;;;;;;;;;;8.66;53.43;100818.19;5058062;28;19917;-84
2021/12/03 09:21:34;;;;;;;;;;;;;;;9.58;51.07;100795.41;5075218;28;19928;-84
2021/12/03 09:26:27;;;;;;;;;;;;;;;9.17;52.10;100808.88;5060045;28;19928;-85
2021/12/03 09:29:00;;;;;;;;;;;;;;;9.69;51.58;100799.47;5073120;28;20378;-86
2021/12/03 09:31:25;;;;;;;;;;;;;;;9.05;53.43;100801.31;5065379;28;19925;-86
2021/12/03 09:33:51;;;;;;;;;;;;;;;9.00;53.58;100798.81;5075052;28;19922;-89
2021/12/03 09:36:16;;;;;;;;;;;;;;;9.16;53.18;100799.06;5076701;28;20370;-90
2021/12/03 09:38:41;;;;;;;;;;;;;;;9.40;52.85;100805.22;5075060;28;20015;-88
2021/12/03 09:41:15;;;;;;;;;;;;;;;9.27;53.03;100806.69;5073254;28;19952;-88
2021/12/03 09:43:44;;;;;;;;;;;;;;;8.60;55.26;100796.88;5075512;28;19917;-88
2021/12/03 09:46:16;;;;;;;;;;;;;;;8.70;55.13;100792.88;5059446;28;19991;-87
2021/12/03 09:51:25;;;;;;;;;;;;;;;8.87;55.34;100790.34;5066551;28;19947;-87
2021/12/03 09:56:35;;;;;;;;;;;;;;;7.99;57.43;100790.22;5066977;28;20000;-86
2021/12/03 10:12:32;;;;;;;;;;;;;;;8.49;59.04;100763.13;5060814;28;19970;-89
2021/12/03 10:15:09;;;;;;;;;;;;;;;8.10;61.99;100750.25;5058961;28;19923;-90
2021/12/03 10:17:42;;;;;;;;;;;;;;;8.12;61.63;100752.88;5058962;28;20070;-90
2021/12/03 10:20:15;;;;;;;;;;;;;;;8.78;60.95;100741.31;5058946;28;19963;-88
2021/12/03 10:31:14;;;;;;;;;;;;;;;8.45;61.36;100737.22;5058475;28;20007;-90
2021/12/03 10:36:37;;;;;;;;;;;;;;;8.97;61.11;100709.91;5058124;28;20421;-89
2021/12/03 10:41:53;;;;;;;;;;;;;;;8.32;62.32;100709.00;5057391;28;19921;-89
2021/12/03 10:47:07;;;;;;;;;;;;;;;8.43;61.71;100704.03;5061219;28;19921;-92
2021/12/03 11:28:23;;;;;;;;;;;;;;;8.11;62.76;100641.53;5061958;28;19924;-84
2021/12/03 11:33:53;;;;;;;;;;;;;;;8.08;63.55;100611.16;5060458;28;19962;-84
2021/12/03 11:39:13;;;;;;;;;;;;;;;8.52;64.16;100590.44;5057867;28;19920;-85
2021/12/03 11:42:29;;;;;;;;;;;;;;;8.76;62.37;100592.16;5074145;28;20302;-86
2021/12/03 12:08:13;;;;;;;;;;;;;;;8.38;59.86;100554.19;5058435;28;19985;-85
2021/12/03 13:18:46;;;;;;;;;;;;;;;9.00;60.90;100460.66;5058127;28;19967;-83
2021/12/03 13:24:54;;;;;;;;;;;;;;;9.31;61.17;100456.47;5056422;28;19982;-85
2021/12/03 13:56:32;;;;;;;;;;;;;;;9.63;62.16;100460.31;5059506;28;19925;-86
2021/12/03 13:57:43;;;;;;;;;;;;;;;9.42;61.41;100462.25;5058584;28;20058;-88
2021/12/03 14:17:35;;;;;;;;;;;;;;;9.04;66.20;100452.34;5058261;28;19917;-88
2021/12/03 14:37:46;;;;;;;;;;;;;;;9.90;64.94;100436.44;5057525;28;19931;-88
2021/12/03 14:57:05;;;;;;;;;;;;;;;9.66;65.01;100422.34;5055643;28;19927;-85
2021/12/03 14:59:32;;;;;;;;;;;;;;;9.85;64.08;100413.28;5053934;28;20374;-84
2021/12/03 15:02:21;;;;;;;;;;;;;;;10.20;62.67;100403.31;5055144;28;19917;-86
2021/12/03 15:07:32;;;;;;;;;;;;;;;9.17;66.69;100404.03;5056623;28;19971;-86
2021/12/03 15:09:57;;;;;;;;;;;;;;;9.51;67.70;100404.19;5054204;28;20341;-85
2021/12/03 15:25:14;;;;;;;;;;;;;;;9.42;63.93;100408.25;5056057;28;19956;-84
2021/12/03 16:10:28;;;;;;;;;;;;;;;9.82;64.47;100335.97;5060456;28;19924;-84
2021/12/03 16:26:41;;;;;;;;;;;;;;;9.21;66.43;100357.06;5059428;28;19924;-83
2021/12/03 16:53:41;;;;;;;;;;;;;;;9.83;63.13;100344.94;5059271;28;19928;-85
2021/12/03 16:56:10;;;;;;;;;;;;;;;9.49;64.49;100350.25;5074809;28;19984;-87
2021/12/03 16:58:38;;;;;;;;;;;;;;;9.63;65.44;100330.69;5059252;28;19917;-84
2021/12/03 17:01:09;;;;;;;;;;;;;;;9.40;65.09;100321.94;5076051;28;19939;-87
2021/12/03 17:11:48;;;;;;;;;;;;;;;9.84;64.68;100301.63;5060897;28;19962;-90
2021/12/03 17:22:54;;;;;;;;;;;;;;;9.81;63.52;100296.38;5062129;28;19924;-87
2021/12/03 17:45:05;;;;;;;;;;;;;;;9.18;65.15;100284.34;5058881;28;20625;-85
2021/12/03 17:47:34;;;;;;;;;;;;;;;9.52;65.15;100279.03;5054451;28;19921;-84
2021/12/03 17:50:13;;;;;;;;;;;;;;;9.92;63.76;100283.19;5059891;28;19952;-85
2021/12/03 18:00:40;;;;;;;;;;;;;;;10.08;62.69;100277.84;5059970;28;19928;-87
2021/12/03 18:03:50;;;;;;;;;;;;;;;9.96;62.90;100259.56;5074761;28;19923;-85
2021/12/03 18:16:51;;;;;;;;;;;;;;;9.70;66.44;100269.94;5058857;28;19917;-86
2021/12/03 18:59:10;;;;;;;;;;;;;;;9.79;65.63;100274.00;5073600;28;20328;-85
2021/12/03 19:01:36;;;;;;;;;;;;;;;9.93;66.96;100279.53;5088315;28;19948;-84
2021/12/03 19:06:30;;;;;;;;;;;;;;;10.22;65.00;100273.47;5061654;28;19963;-86
2021/12/03 19:09:05;;;;;;;;;;;;;;;9.19;72.19;100280.72;5078961;28;20394;-85
2021/12/03 19:13:56;;;;;;;;;;;;;;;10.03;65.97;100265.53;5062094;28;19939;-84
2021/12/03 19:16:24;;;;;;;;;;;;;;;10.05;65.00;100263.59;5077453;28;19973;-86
2021/12/03 19:18:52;;;;;;;;;;;;;;;9.82;65.69;100246.81;5077573;28;19926;-85
2021/12/03 19:21:22;;;;;;;;;;;;;;;9.79;65.67;100255.09;5062527;28;19920;-84
2021/12/03 19:23:48;;;;;;;;;;;;;;;9.81;65.85;100241.50;5064691;28;19928;-84
2021/12/03 19:26:14;;;;;;;;;;;;;;;9.81;67.85;100231.56;5058060;28;19977;-84
2021/12/03 19:28:39;;;;;;;;;;;;;;;9.97;65.10;100228.03;5056989;28;20318;-84
2021/12/03 19:31:06;;;;;;;;;;;;;;;10.69;63.33;100225.78;5077746;28;19932;-87
2021/12/03 19:33:33;;;;;;;;;;;;;;;9.66;65.74;100225.19;5082610;28;19924;-86
2021/12/03 19:35:58;;;;;;;;;;;;;;;9.79;64.97;100222.66;5062130;28;19921;-85
2021/12/03 19:38:24;;;;;;;;;;;;;;;10.15;64.49;100224.31;5077111;28;20293;-86
2021/12/03 19:41:12;;;;;;;;;;;;;;;10.20;63.93;100233.00;5075589;28;19927;-87
2021/12/03 19:43:44;;;;;;;;;;;;;;;9.90;64.50;100241.00;5060998;28;20425;-85
2021/12/03 19:46:13;;;;;;;;;;;;;;;10.49;62.60;100233.22;5061005;28;20290;-87
2021/12/03 19:48:49;;;;;;;;;;;;;;;10.59;63.10;100236.28;5063628;28;19924;-87
2021/12/03 19:51:16;;;;;;;;;;;;;;;9.90;64.95;100231.06;5060808;28;19925;-82
2021/12/03 19:53:54;;;;;;;;;;;;;;;9.72;65.77;100222.16;5061975;28;19963;-84
2021/12/03 19:56:24;;;;;;;;;;;;;;;10.29;63.59;100227.09;5061763;28;19917;-85
2021/12/03 19:58:50;;;;;;;;;;;;;;;9.90;65.30;100222.97;5062689;28;19956;-86
2021/12/03 20:01:15;;;;;;;;;;;;;;;10.53;63.18;100213.16;5079156;28;19917;-85
2021/12/03 20:03:40;;;;;;;;;;;;;;;10.29;63.44;100210.00;5079622;28;19988;-85
2021/12/03 20:06:07;;;;;;;;;;;;;;;10.31;63.82;100210.81;5077209;28;19917;-82
2021/12/03 20:08:34;;;;;;;;;;;;;;;10.71;63.14;100203.13;5076001;28;19924;-83
2021/12/03 20:11:04;;;;;;;;;;;;;;;10.52;63.46;100210.56;5076882;28;19987;-84
2021/12/03 20:13:29;;;;;;;;;;;;;;;9.97;64.06;100212.69;5072903;28;19920;-82
2021/12/03 20:16:07;;;;;;;;;;;;;;;10.14;64.05;100200.06;5060103;28;20416;-83
2021/12/03 20:18:42;;;;;;;;;;;;;;;9.88;64.30;100205.94;5060431;28;19917;-84
2021/12/03 20:21:10;;;;;;;;;;;;;;;10.05;64.30;100204.16;5097958;28;19936;-83